sensor_id;sensor_type;location;lat;lon;timestamp;pressure;altitude;pressure_sealevel;temperature;humidity
18678;BME280;9469;51.114;13.914;2023-04-08T00:04:52;99039.25;;;5.20;100.00
18678;BME280;9469;51.114;13.914;2023-04-08T00:10:03;99028.84;;;5.65;100.00
18678;BME280;9469;51.114;13.914;2023-04-08T00:15:09;99036.34;;;5.21;100.00
18678;BME280;9469;51.114;13.914;2023-04-08T00:20:15;99031.94;;;5.42;100.00
18678;BME280;9469;51.114;13.914;2023-04-08T00:25:23;99026.06;;;5.25;100.00
18678;BME280;9469;51.114;13.914;2023-04-08T00:30:28;99033.06;;;5.66;100.00
18678;BME280;9469;51.114;13.914;2023-04-08T00:35:34;99030.94;;;5.58;100.00
18678;BME280;9469;51.114;13.914;2023-04-08T00:40:42;99033.59;;;5.63;100.00
18678;BME280;9469;51.114;13.914;2023-04-08T00:45:47;99035.19;;;5.64;100.00
18678;BME280;9469;51.114;13.914;2023-04-08T00:50:52;99041.09;;;5.91;100.00
18678;BME280;9469;51.114;13.914;2023-04-08T00:56:00;99041.56;;;5.83;100.00
18678;BME280;9469;51.114;13.914;2023-04-08T01:01:13;99040.28;;;5.86;100.00
18678;BME280;9469;51.114;13.914;2023-04-08T01:06:27;99036.25;;;5.68;100.00
18678;BME280;9469;51.114;13.914;2023-04-08T01:11:41;99027.59;;;5.93;100.00
18678;BME280;9469;51.114;13.914;2023-04-08T01:16:49;99037.94;;;5.94;100.00
18678;BME280;9469;51.114;13.914;2023-04-08T01:22:01;99037.06;;;5.78;100.00
18678;BME280;9469;51.114;13.914;2023-04-08T01:27:11;99025.16;;;5.71;100.00
18678;BME280;9469;51.114;13.914;2023-04-08T01:32:18;99009.59;;;5.69;100.00
18678;BME280;9469;51.114;13.914;2023-04-08T01:37:24;99025.44;;;5.74;100.00
18678;BME280;9469;51.114;13.914;2023-04-08T01:42:35;99010.72;;;5.94;100.00
18678;BME280;9469;51.114;13.914;2023-04-08T01:47:43;99011.28;;;6.06;100.00
18678;BME280;9469;51.114;13.914;2023-04-08T01:52:52;99030.72;;;5.79;100.00
18678;BME280;9469;51.114;13.914;2023-04-08T01:58:02;99032.16;;;6.17;100.00
18678;BME280;9469;51.114;13.914;2023-04-08T02:03:11;99026.03;;;5.92;100.00
18678;BME280;9469;51.114;13.914;2023-04-08T02:08:20;99028.63;;;5.76;100.00
18678;BME280;9469;51.114;13.914;2023-04-08T02:13:31;99029.94;;;5.79;100.00
18678;BME280;9469;51.114;13.914;2023-04-08T02:18:40;99037.44;;;6.12;100.00
18678;BME280;9469;51.114;13.914;2023-04-08T02:23:49;99027.38;;;5.99;100.00
18678;BME280;9469;51.114;13.914;2023-04-08T02:28:58;99044.56;;;6.37;100.00
18678;BME280;9469;51.114;13.914;2023-04-08T02:34:05;99035.50;;;5.82;100.00
18678;BME280;9469;51.114;13.914;2023-04-08T02:39:11;99046.88;;;5.93;100.00
18678;BME280;9469;51.114;13.914;2023-04-08T02:44:22;99048.69;;;5.82;100.00
18678;BME280;9469;51.114;13.914;2023-04-08T02:49:28;99046.91;;;6.13;100.00
18678;BME280;9469;51.114;13.914;2023-04-08T02:54:33;99042.44;;;6.04;100.00
18678;BME280;9469;51.114;13.914;2023-04-08T02:59:41;99047.97;;;6.07;100.00
18678;BME280;9469;51.114;13.914;2023-04-08T03:04:46;99052.22;;;6.23;100.00
18678;BME280;9469;51.114;13.914;2023-04-08T03:09:52;99054.06;;;6.18;100.00
18678;BME280;9469;51.114;13.914;2023-04-08T03:15:00;99040.09;;;6.17;100.00
18678;BME280;9469;51.114;13.914;2023-04-08T03:20:06;99049.06;;;6.26;100.00
18678;BME280;9469;51.114;13.914;2023-04-08T03:25:12;99057.25;;;6.35;100.00
18678;BME280;9469;51.114;13.914;2023-04-08T03:30:22;99063.59;;;6.34;100.00
18678;BME280;9469;51.114;13.914;2023-04-08T03:35:27;99051.69;;;6.51;100.00
18678;BME280;9469;51.114;13.914;2023-04-08T03:40:34;99045.88;;;6.09;100.00
18678;BME280;9469;51.114;13.914;2023-04-08T03:45:41;99049.06;;;6.41;100.00
18678;BME280;9469;51.114;13.914;2023-04-08T03:50:49;99049.03;;;5.96;100.00
18678;BME280;9469;51.114;13.914;2023-04-08T03:55:55;99046.41;;;6.36;100.00
18678;BME280;9469;51.114;13.914;2023-04-08T04:01:04;99039.78;;;6.09;100.00
18678;BME280;9469;51.114;13.914;2023-04-08T04:06:09;99050.13;;;6.50;100.00
18678;BME280;9469;51.114;13.914;2023-04-08T04:11:14;99057.50;;;6.38;100.00
18678;BME280;9469;51.114;13.914;2023-04-08T04:16:22;99060.16;;;6.38;100.00
18678;BME280;9469;51.114;13.914;2023-04-08T04:21:27;99069.94;;;6.33;100.00
18678;BME280;9469;51.114;13.914;2023-04-08T04:26:32;99070.22;;;6.46;100.00
18678;BME280;9469;51.114;13.914;2023-04-08T04:31:42;99086.03;;;6.36;100.00
18678;BME280;9469;51.114;13.914;2023-04-08T04:36:48;99070.47;;;6.35;100.00
18678;BME280;9469;51.114;13.914;2023-04-08T04:41:53;99085.50;;;6.24;100.00
18678;BME280;9469;51.114;13.914;2023-04-08T04:47:03;99089.22;;;6.43;100.00
18678;BME280;9469;51.114;13.914;2023-04-08T04:52:08;99100.59;;;6.54;100.00
18678;BME280;9469;51.114;13.914;2023-04-08T04:57:13;99092.41;;;6.45;100.00
18678;BME280;9469;51.114;13.914;2023-04-08T05:02:21;99091.06;;;6.38;100.00
18678;BME280;9469;51.114;13.914;2023-04-08T05:07:26;99088.19;;;6.39;100.00
18678;BME280;9469;51.114;13.914;2023-04-08T05:12:32;99091.31;;;6.31;100.00
18678;BME280;9469;51.114;13.914;2023-04-08T05:17:41;99098.22;;;6.32;100.00
18678;BME280;9469;51.114;13.914;2023-04-08T05:22:46;99096.63;;;6.46;100.00
18678;BME280;9469;51.114;13.914;2023-04-08T05:27:53;99099.28;;;6.62;100.00
18678;BME280;9469;51.114;13.914;2023-04-08T05:33:01;99123.31;;;6.35;100.00
18678;BME280;9469;51.114;13.914;2023-04-08T05:38:06;99113.53;;;6.45;100.00
18678;BME280;9469;51.114;13.914;2023-04-08T05:43:11;99132.56;;;6.47;100.00
18678;BME280;9469;51.114;13.914;2023-04-08T05:48:19;99131.50;;;6.43;100.00
18678;BME280;9469;51.114;13.914;2023-04-08T05:53:24;99135.75;;;6.39;100.00
18678;BME280;9469;51.114;13.914;2023-04-08T05:58:30;99137.84;;;6.47;100.00
18678;BME280;9469;51.114;13.914;2023-04-08T06:03:39;99143.91;;;6.38;100.00
18678;BME280;9469;51.114;13.914;2023-04-08T06:08:45;99148.72;;;6.51;100.00
18678;BME280;9469;51.114;13.914;2023-04-08T06:13:51;99149.75;;;6.55;100.00
18678;BME280;9469;51.114;13.914;2023-04-08T06:18:58;99148.41;;;6.47;100.00
18678;BME280;9469;51.114;13.914;2023-04-08T06:24:06;99160.84;;;6.42;100.00
18678;BME280;9469;51.114;13.914;2023-04-08T06:29:11;99155.53;;;6.32;100.00
18678;BME280;9469;51.114;13.914;2023-04-08T06:34:19;99168.75;;;6.37;100.00
18678;BME280;9469;51.114;13.914;2023-04-08T06:39:24;99167.16;;;6.36;100.00
18678;BME280;9469;51.114;13.914;2023-04-08T06:44:30;99171.13;;;6.38;100.00
18678;BME280;9469;51.114;13.914;2023-04-08T06:49:38;99184.34;;;6.43;100.00
18678;BME280;9469;51.114;13.914;2023-04-08T06:54:43;99197.63;;;6.74;100.00
18678;BME280;9469;51.114;13.914;2023-04-08T06:59:48;99201.88;;;6.80;100.00
18678;BME280;9469;51.114;13.914;2023-04-08T07:04:57;99216.94;;;6.84;100.00
18678;BME280;9469;51.114;13.914;2023-04-08T07:10:03;99210.03;;;6.63;100.00
18678;BME280;9469;51.114;13.914;2023-04-08T07:15:11;99214.53;;;6.58;100.00
18678;BME280;9469;51.114;13.914;2023-04-08T07:20:19;99225.91;;;6.73;100.00
18678;BME280;9469;51.114;13.914;2023-04-08T07:25:27;99218.78;;;6.74;100.00
18678;BME280;9469;51.114;13.914;2023-04-08T07:30:32;99236.25;;;6.90;100.00
18678;BME280;9469;51.114;13.914;2023-04-08T07:35:40;99227.78;;;6.93;100.00
18678;BME280;9469;51.114;13.914;2023-04-08T07:40:45;99238.09;;;6.89;100.00
18678;BME280;9469;51.114;13.914;2023-04-08T07:45:50;99246.28;;;6.88;100.00
18678;BME280;9469;51.114;13.914;2023-04-08T07:51:02;99255.84;;;7.24;100.00
18678;BME280;9469;51.114;13.914;2023-04-08T07:56:12;99255.06;;;7.23;100.00
18678;BME280;9469;51.114;13.914;2023-04-08T08:01:21;99270.38;;;7.21;100.00
18678;BME280;9469;51.114;13.914;2023-04-08T08:06:35;99264.84;;;7.38;100.00
18678;BME280;9469;51.114;13.914;2023-04-08T08:11:40;99265.09;;;7.47;100.00
18678;BME280;9469;51.114;13.914;2023-04-08T08:16:47;99273.81;;;7.62;100.00
18678;BME280;9469;51.114;13.914;2023-04-08T08:21:59;99276.50;;;7.52;100.00
18678;BME280;9469;51.114;13.914;2023-04-08T08:27:05;99281.75;;;7.67;100.00
18678;BME280;9469;51.114;13.914;2023-04-08T08:32:10;99284.41;;;7.67;100.00
18678;BME280;9469;51.114;13.914;2023-04-08T08:37:19;99289.72;;;7.32;100.00
18678;BME280;9469;51.114;13.914;2023-04-08T08:42:25;99297.66;;;7.47;100.00
18678;BME280;9469;51.114;13.914;2023-04-08T08:47:30;99306.13;;;7.84;100.00
18678;BME280;9469;51.114;13.914;2023-04-08T08:52:38;99308.22;;;7.92;100.00
18678;BME280;9469;51.114;13.914;2023-04-08T08:57:49;99312.94;;;8.11;100.00
18678;BME280;9469;51.114;13.914;2023-04-08T09:02:54;99319.53;;;8.23;100.00
18678;BME280;9469;51.114;13.914;2023-04-08T09:08:04;99325.19;;;7.86;100.00
18678;BME280;9469;51.114;13.914;2023-04-08T09:13:34;99329.41;;;7.87;100.00
18678;BME280;9469;51.114;13.914;2023-04-08T09:18:46;99339.69;;;8.14;100.00
18678;BME280;9469;51.114;13.914;2023-04-08T09:23:57;99338.91;;;8.04;100.00
18678;BME280;9469;51.114;13.914;2023-04-08T09:29:03;99349.00;;;8.12;100.00
18678;BME280;9469;51.114;13.914;2023-04-08T09:34:27;99355.84;;;8.23;100.00
18678;BME280;9469;51.114;13.914;2023-04-08T09:44:53;99348.22;;;7.91;100.00
18678;BME280;9469;51.114;13.914;2023-04-08T09:50:04;99365.91;;;8.36;100.00
18678;BME280;9469;51.114;13.914;2023-04-08T09:55:17;99368.06;;;8.14;100.00
18678;BME280;9469;51.114;13.914;2023-04-08T10:00:31;99362.19;;;8.22;100.00
18678;BME280;9469;51.114;13.914;2023-04-08T10:05:38;99361.16;;;8.33;100.00
18678;BME280;9469;51.114;13.914;2023-04-08T10:10:50;99375.44;;;8.42;100.00
18678;BME280;9469;51.114;13.914;2023-04-08T10:16:19;99367.00;;;8.30;97.79
18678;BME280;9469;51.114;13.914;2023-04-08T10:21:34;99372.75;;;8.57;99.39
18678;BME280;9469;51.114;13.914;2023-04-08T10:26:43;99379.44;;;8.24;97.26
18678;BME280;9469;51.114;13.914;2023-04-08T10:31:50;99372.84;;;8.27;98.71
18678;BME280;9469;51.114;13.914;2023-04-08T10:36:56;99393.19;;;8.46;98.90
18678;BME280;9469;51.114;13.914;2023-04-08T10:42:08;99382.34;;;8.23;99.88
18678;BME280;9469;51.114;13.914;2023-04-08T10:47:13;99378.94;;;8.07;100.00
18678;BME280;9469;51.114;13.914;2023-04-08T10:52:20;99391.38;;;8.12;100.00
18678;BME280;9469;51.114;13.914;2023-04-08T10:57:32;99382.38;;;7.92;100.00
18678;BME280;9469;51.114;13.914;2023-04-08T11:02:38;99378.94;;;7.92;100.00
18678;BME280;9469;51.114;13.914;2023-04-08T11:07:45;99383.69;;;8.05;100.00
18678;BME280;9469;51.114;13.914;2023-04-08T11:12:56;99385.00;;;8.28;100.00
18678;BME280;9469;51.114;13.914;2023-04-08T11:18:01;99381.28;;;8.19;100.00
18678;BME280;9469;51.114;13.914;2023-04-08T11:23:11;99394.31;;;8.00;100.00
18678;BME280;9469;51.114;13.914;2023-04-08T11:28:20;99403.06;;;7.90;100.00
18678;BME280;9469;51.114;13.914;2023-04-08T11:33:26;99413.09;;;7.63;100.00
18678;BME280;9469;51.114;13.914;2023-04-08T11:38:31;99408.09;;;7.62;100.00
18678;BME280;9469;51.114;13.914;2023-04-08T11:43:50;99412.41;;;6.96;100.00
18678;BME280;9469;51.114;13.914;2023-04-08T11:48:58;99421.72;;;7.13;100.00
18678;BME280;9469;51.114;13.914;2023-04-08T11:54:04;99417.84;;;7.56;100.00
18678;BME280;9469;51.114;13.914;2023-04-08T11:59:13;99411.44;;;7.22;100.00
18678;BME280;9469;51.114;13.914;2023-04-08T12:04:18;99415.13;;;7.26;100.00
18678;BME280;9469;51.114;13.914;2023-04-08T12:09:29;99428.09;;;7.17;100.00
18678;BME280;9469;51.114;13.914;2023-04-08T12:14:37;99423.34;;;7.14;100.00
18678;BME280;9469;51.114;13.914;2023-04-08T12:20:03;99440.31;;;7.34;100.00
18678;BME280;9469;51.114;13.914;2023-04-08T12:25:09;99444.59;;;7.55;100.00
18678;BME280;9469;51.114;13.914;2023-04-08T12:30:18;99446.97;;;7.56;100.00
18678;BME280;9469;51.114;13.914;2023-04-08T12:35:23;99441.69;;;7.56;100.00
18678;BME280;9469;51.114;13.914;2023-04-08T12:40:28;99449.66;;;7.66;100.00
18678;BME280;9469;51.114;13.914;2023-04-08T12:45:36;99443.31;;;7.92;100.00
18678;BME280;9469;51.114;13.914;2023-04-08T12:50:43;99452.56;;;7.70;100.00
18678;BME280;9469;51.114;13.914;2023-04-08T12:55:49;99454.41;;;7.59;100.00
18678;BME280;9469;51.114;13.914;2023-04-08T13:01:00;99451.59;;;7.09;100.00
18678;BME280;9469;51.114;13.914;2023-04-08T13:06:06;99460.19;;;7.41;100.00
18678;BME280;9469;51.114;13.914;2023-04-08T13:11:14;99460.22;;;7.56;100.00
18678;BME280;9469;51.114;13.914;2023-04-08T13:16:25;99453.06;;;7.67;100.00
18678;BME280;9469;51.114;13.914;2023-04-08T13:21:30;99464.66;;;7.26;100.00
18678;BME280;9469;51.114;13.914;2023-04-08T13:26:35;99463.41;;;7.63;100.00
18678;BME280;9469;51.114;13.914;2023-04-08T13:31:44;99470.25;;;7.44;100.00
18678;BME280;9469;51.114;13.914;2023-04-08T13:36:49;99458.06;;;7.38;100.00
18678;BME280;9469;51.114;13.914;2023-04-08T13:41:54;99476.59;;;7.38;100.00
18678;BME280;9469;51.114;13.914;2023-04-08T13:47:02;99477.09;;;7.30;100.00
18678;BME280;9469;51.114;13.914;2023-04-08T13:52:10;99468.13;;;7.41;100.00
18678;BME280;9469;51.114;13.914;2023-04-08T13:57:15;99470.81;;;7.61;100.00
18678;BME280;9469;51.114;13.914;2023-04-08T14:02:24;99479.81;;;7.55;100.00
18678;BME280;9469;51.114;13.914;2023-04-08T14:07:31;99478.72;;;7.41;100.00
18678;BME280;9469;51.114;13.914;2023-04-08T14:12:37;99485.59;;;7.42;100.00
18678;BME280;9469;51.114;13.914;2023-04-08T14:17:46;99485.00;;;7.25;100.00
18678;BME280;9469;51.114;13.914;2023-04-08T14:22:56;99491.41;;;7.39;100.00
18678;BME280;9469;51.114;13.914;2023-04-08T14:28:03;99491.88;;;7.26;100.00
18678;BME280;9469;51.114;13.914;2023-04-08T14:33:11;99485.03;;;7.30;100.00
18678;BME280;9469;51.114;13.914;2023-04-08T14:38:17;99486.19;;;7.74;99.97
18678;BME280;9469;51.114;13.914;2023-04-08T14:43:22;99489.63;;;7.65;99.01
18678;BME280;9469;51.114;13.914;2023-04-08T14:48:31;99478.78;;;7.61;98.82
18678;BME280;9469;51.114;13.914;2023-04-08T14:53:37;99488.88;;;7.79;97.65
18678;BME280;9469;51.114;13.914;2023-04-08T14:58:47;99481.38;;;7.51;98.48
18678;BME280;9469;51.114;13.914;2023-04-08T15:03:58;99488.47;;;7.36;98.83
18678;BME280;9469;51.114;13.914;2023-04-08T15:09:03;99490.63;;;7.49;99.64
18678;BME280;9469;51.114;13.914;2023-04-08T15:14:10;99489.34;;;7.61;99.73
18678;BME280;9469;51.114;13.914;2023-04-08T15:19:18;99493.78;;;7.36;99.54
18678;BME280;9469;51.114;13.914;2023-04-08T15:24:24;99507.53;;;7.38;100.00
18678;BME280;9469;51.114;13.914;2023-04-08T15:29:30;99495.63;;;7.30;98.94
18678;BME280;9469;51.114;13.914;2023-04-08T15:34:37;99514.63;;;7.22;99.28
18678;BME280;9469;51.114;13.914;2023-04-08T15:39:43;99522.63;;;7.32;99.52
18678;BME280;9469;51.114;13.914;2023-04-08T15:44:51;99522.66;;;7.37;100.00
18678;BME280;9469;51.114;13.914;2023-04-08T15:49:59;99534.78;;;7.33;99.75
18678;BME280;9469;51.114;13.914;2023-04-08T15:55:07;99524.16;;;7.23;100.00
18678;BME280;9469;51.114;13.914;2023-04-08T16:00:16;99531.09;;;7.34;100.00
18678;BME280;9469;51.114;13.914;2023-04-08T16:05:23;99530.03;;;7.30;100.00
18678;BME280;9469;51.114;13.914;2023-04-08T16:10:32;99531.56;;;7.26;100.00
18678;BME280;9469;51.114;13.914;2023-04-08T16:15:40;99545.56;;;7.21;100.00
18678;BME280;9469;51.114;13.914;2023-04-08T16:20:51;99548.00;;;7.23;100.00
18678;BME280;9469;51.114;13.914;2023-04-08T16:25:56;99539.47;;;7.16;100.00
18678;BME280;9469;51.114;13.914;2023-04-08T16:31:04;99542.00;;;6.91;100.00
18678;BME280;9469;51.114;13.914;2023-04-08T16:36:15;99544.31;;;6.82;100.00
18678;BME280;9469;51.114;13.914;2023-04-08T16:41:21;99554.19;;;6.97;100.00
18678;BME280;9469;51.114;13.914;2023-04-08T16:46:32;99556.81;;;6.97;100.00
18678;BME280;9469;51.114;13.914;2023-04-08T16:51:40;99551.09;;;7.10;100.00
18678;BME280;9469;51.114;13.914;2023-04-08T16:56:45;99555.13;;;6.81;100.00
18678;BME280;9469;51.114;13.914;2023-04-08T17:01:50;99560.06;;;6.67;100.00
18678;BME280;9469;51.114;13.914;2023-04-08T17:07:02;99569.66;;;6.73;100.00
18678;BME280;9469;51.114;13.914;2023-04-08T17:12:07;99576.91;;;6.93;100.00
18678;BME280;9469;51.114;13.914;2023-04-08T17:17:13;99579.25;;;6.84;100.00
18678;BME280;9469;51.114;13.914;2023-04-08T17:22:23;99581.56;;;6.81;100.00
18678;BME280;9469;51.114;13.914;2023-04-08T17:27:29;99591.78;;;6.67;100.00
18678;BME280;9469;51.114;13.914;2023-04-08T17:32:41;99595.78;;;6.70;100.00
18678;BME280;9469;51.114;13.914;2023-04-08T17:37:50;99597.22;;;6.50;100.00
18678;BME280;9469;51.114;13.914;2023-04-08T17:42:55;99614.66;;;6.51;100.00
18678;BME280;9469;51.114;13.914;2023-04-08T17:48:01;99610.44;;;6.50;100.00
18678;BME280;9469;51.114;13.914;2023-04-08T17:53:12;99621.06;;;6.56;100.00
18678;BME280;9469;51.114;13.914;2023-04-08T17:58:20;99632.44;;;6.29;100.00
18678;BME280;9469;51.114;13.914;2023-04-08T18:03:25;99626.75;;;6.42;100.00
18678;BME280;9469;51.114;13.914;2023-04-08T18:08:33;99641.16;;;6.57;100.00
18678;BME280;9469;51.114;13.914;2023-04-08T18:13:39;99636.94;;;6.56;100.00
18678;BME280;9469;51.114;13.914;2023-04-08T18:18:44;99643.66;;;6.41;100.00
18678;BME280;9469;51.114;13.914;2023-04-08T18:23:55;99653.97;;;6.16;100.00
18678;BME280;9469;51.114;13.914;2023-04-08T18:29:00;99664.06;;;5.98;100.00
18678;BME280;9469;51.114;13.914;2023-04-08T18:34:06;99672.00;;;6.24;100.00
18678;BME280;9469;51.114;13.914;2023-04-08T18:39:16;99674.22;;;6.32;100.00
18678;BME280;9469;51.114;13.914;2023-04-08T18:44:22;99671.53;;;6.27;100.00
18678;BME280;9469;51.114;13.914;2023-04-08T18:49:28;99674.22;;;6.32;100.00
18678;BME280;9469;51.114;13.914;2023-04-08T18:54:38;99689.84;;;6.12;100.00
18678;BME280;9469;51.114;13.914;2023-04-08T18:59:45;99694.56;;;6.32;100.00
18678;BME280;9469;51.114;13.914;2023-04-08T19:04:54;99690.75;;;6.23;100.00
18678;BME280;9469;51.114;13.914;2023-04-08T19:10:04;99692.84;;;6.21;100.00
18678;BME280;9469;51.114;13.914;2023-04-08T19:15:11;99694.69;;;6.20;100.00
18678;BME280;9469;51.114;13.914;2023-04-08T19:20:17;99702.38;;;6.00;100.00
18678;BME280;9469;51.114;13.914;2023-04-08T19:25:26;99691.19;;;5.93;100.00
18678;BME280;9469;51.114;13.914;2023-04-08T19:30:34;99687.34;;;6.01;100.00
18678;BME280;9469;51.114;13.914;2023-04-08T19:35:40;99682.75;;;5.74;100.00
18678;BME280;9469;51.114;13.914;2023-04-08T19:40:52;99684.06;;;5.72;100.00
18678;BME280;9469;51.114;13.914;2023-04-08T19:45:57;99692.94;;;5.66;100.00
18678;BME280;9469;51.114;13.914;2023-04-08T19:51:03;99701.97;;;5.15;100.00
18678;BME280;9469;51.114;13.914;2023-04-08T19:56:11;99696.31;;;5.06;100.00
18678;BME280;9469;51.114;13.914;2023-04-08T20:01:18;99694.38;;;5.19;100.00
18678;BME280;9469;51.114;13.914;2023-04-08T20:06:25;99700.13;;;5.16;100.00
18678;BME280;9469;51.114;13.914;2023-04-08T20:11:37;99699.81;;;5.29;100.00
18678;BME280;9469;51.114;13.914;2023-04-08T20:16:44;99698.53;;;5.31;100.00
18678;BME280;9469;51.114;13.914;2023-04-08T20:21:55;99699.97;;;4.72;100.00
18678;BME280;9469;51.114;13.914;2023-04-08T20:27:11;99701.88;;;4.77;100.00
18678;BME280;9469;51.114;13.914;2023-04-08T20:32:18;99709.19;;;4.58;100.00
18678;BME280;9469;51.114;13.914;2023-04-08T20:37:24;99696.59;;;4.77;100.00
18678;BME280;9469;51.114;13.914;2023-04-08T20:42:36;99712.38;;;4.32;100.00
18678;BME280;9469;51.114;13.914;2023-04-08T20:47:41;99712.94;;;3.94;100.00
18678;BME280;9469;51.114;13.914;2023-04-08T20:52:48;99715.16;;;3.86;100.00
18678;BME280;9469;51.114;13.914;2023-04-08T20:57:59;99714.75;;;4.05;100.00
18678;BME280;9469;51.114;13.914;2023-04-08T21:03:09;99707.50;;;3.84;100.00
18678;BME280;9469;51.114;13.914;2023-04-08T21:08:14;99729.81;;;3.35;100.00
18678;BME280;9469;51.114;13.914;2023-04-08T21:13:24;99730.16;;;3.16;100.00
18678;BME280;9469;51.114;13.914;2023-04-08T21:18:32;99729.13;;;3.51;100.00
18678;BME280;9469;51.114;13.914;2023-04-08T21:23:38;99724.00;;;3.68;100.00
18678;BME280;9469;51.114;13.914;2023-04-08T21:28:46;99720.09;;;3.71;100.00
18678;BME280;9469;51.114;13.914;2023-04-08T21:33:53;99728.13;;;3.64;100.00
18678;BME280;9469;51.114;13.914;2023-04-08T21:39:02;99738.97;;;3.68;100.00
18678;BME280;9469;51.114;13.914;2023-04-08T21:44:10;99736.91;;;3.46;100.00
18678;BME280;9469;51.114;13.914;2023-04-08T21:49:18;99743.31;;;3.27;100.00
18678;BME280;9469;51.114;13.914;2023-04-08T21:54:24;99740.69;;;3.16;100.00
18678;BME280;9469;51.114;13.914;2023-04-08T21:59:36;99734.72;;;3.20;100.00
18678;BME280;9469;51.114;13.914;2023-04-08T22:04:42;99743.44;;;3.21;100.00
18678;BME280;9469;51.114;13.914;2023-04-08T22:09:48;99726.38;;;3.00;100.00
18678;BME280;9469;51.114;13.914;2023-04-08T22:14:58;99726.50;;;3.28;100.00
18678;BME280;9469;51.114;13.914;2023-04-08T22:20:07;99725.44;;;2.95;100.00
18678;BME280;9469;51.114;13.914;2023-04-08T22:25:13;99716.34;;;3.43;100.00
18678;BME280;9469;51.114;13.914;2023-04-08T22:30:21;99713.47;;;3.45;100.00
18678;BME280;9469;51.114;13.914;2023-04-08T22:35:28;99718.00;;;3.03;100.00
18678;BME280;9469;51.114;13.914;2023-04-08T22:40:35;99708.19;;;2.87;100.00
18678;BME280;9469;51.114;13.914;2023-04-08T22:45:45;99705.44;;;2.52;100.00
18678;BME280;9469;51.114;13.914;2023-04-08T22:50:53;99707.66;;;2.67;100.00
18678;BME280;9469;51.114;13.914;2023-04-08T22:55:58;99726.25;;;2.36;100.00
18678;BME280;9469;51.114;13.914;2023-04-08T23:01:12;99723.38;;;2.26;100.00
18678;BME280;9469;51.114;13.914;2023-04-08T23:06:20;99732.84;;;2.27;100.00
18678;BME280;9469;51.114;13.914;2023-04-08T23:11:27;99734.91;;;2.25;100.00
18678;BME280;9469;51.114;13.914;2023-04-08T23:16:35;99737.03;;;1.98;100.00
18678;BME280;9469;51.114;13.914;2023-04-08T23:21:43;99740.25;;;2.00;100.00
18678;BME280;9469;51.114;13.914;2023-04-08T23:26:48;99728.34;;;1.61;100.00
18678;BME280;9469;51.114;13.914;2023-04-08T23:31:57;99727.09;;;1.64;100.00
18678;BME280;9469;51.114;13.914;2023-04-08T23:37:03;99732.72;;;1.49;100.00
18678;BME280;9469;51.114;13.914;2023-04-08T23:42:08;99729.59;;;1.77;100.00
18678;BME280;9469;51.114;13.914;2023-04-08T23:47:16;99719.75;;;1.90;100.00
18678;BME280;9469;51.114;13.914;2023-04-08T23:52:24;99721.44;;;1.85;100.00
18678;BME280;9469;51.114;13.914;2023-04-08T23:57:32;99709.56;;;1.64;100.00
